Flight Track Log - Related Links

Times and Time Zones

All times are in EDT time to prevent confusion due to time zone crossing. See the AFR356 flight status page for this flight to view local times or setup timezone preferences in your user account.

Time Position Orientation Groundspeed Altitude Reporting Facility
EDT Latitude Longitude Course Direction KTS MPH feet Rate Location/Type
Tue 08:25:00 AM 49.0610 2.3711 292° West  Level FlightAware Approximate
Tue 08:26:00 AM 49.1196 2.1920 299° West  Level FlightAware Approximate
Tue 08:27:00 AM 49.1812 2.0225 299° West  Level FlightAware Approximate
Tue 08:28:00 AM 49.2382 1.8501 294° West  Level FlightAware Approximate
Tue 08:29:00 AM 49.2932 1.6752 299° West  Level FlightAware Approximate
Tue 08:30:00 AM 49.3535 1.5040 298° West  Level FlightAware Approximate
Tue 08:31:00 AM 49.4082 1.3283 295° West  Level FlightAware Approximate
Tue 08:32:00 AM 49.4653 1.1542 297° West  Level FlightAware Approximate
Tue 08:33:00 AM 49.5233 0.9805 297° West  Level FlightAware Approximate
Tue 08:34:00 AM 49.5819 0.8071 299° West  Level FlightAware Approximate
Tue 08:35:00 AM 49.6426 0.6352 299° West  Level FlightAware Approximate
Tue 08:36:00 AM 49.7013 0.4615 291° West  Level FlightAware Approximate
Tue 08:37:00 AM 49.7470 0.2785 291° West  Level FlightAware Approximate
Tue 08:38:00 AM 49.8075 0.1060 299° West  Level FlightAware Approximate
Tue 08:39:00 AM 49.8663 -0.0682 297° West  Level FlightAware Approximate
Tue 08:40:00 AM 49.9233 -0.2441 297° West  Level FlightAware Approximate
Tue 08:41:00 AM 49.9799 -0.4205 297° West  Level FlightAware Approximate
Tue 08:42:00 AM 50.0266 -0.6003 296° West  Level FlightAware Approximate
Tue 08:43:00 AM 50.0827 -0.7770 296° West  Level FlightAware Approximate
Tue 08:43:01 AM 49.0789 2.3773 358° North 244 281 4,700  Level FlightAware ADS-B
Tue 08:43:58 AM 49.1610 2.3750 359° North 285 328 6,800 2,011 Climbing FlightAware ADS-B
Tue 08:46:09 AM 49.3446 2.3717 355° North 332 382 11,000 1,362 Climbing FlightAware ADS-B
Tue 08:47:25 AM 49.3939 2.3651 355° North 360 414 11,500 566 Climbing FlightAware UK
Tue 08:47:55 AM 49.4416 2.3461 346° North 384 442 12,000 1,600 Climbing FlightAware UK
Tue 08:48:25 AM 49.4942 2.3258 346° North 398 458 13,100 2,550 Climbing FlightAware UK
Tue 08:49:55 AM 49.6646 2.2698 348° North 426 490 17,100 2,667 Climbing FlightAware UK
Tue 08:50:49 AM 49.7669 2.2218 343° North 432 497 19,500 2,791 Climbing FlightAware UK
Tue 08:51:21 AM 49.8071 2.1938 337° Northwest 432 497 21,100 2,593 Climbing FlightAware ADS-B (EGLF / FAB)
Tue 08:52:10 AM 49.9151 2.1237 338° Northwest 449 517 23,000 2,143 Climbing FlightAware ADS-B
Tue 08:52:31 AM 49.9567 2.0963 337° Northwest 450 518 23,600 2,471 Climbing FlightAware UK
Tue 08:52:44 AM 49.9810 2.0771 334° Northwest 448 516 24,400 3,000 Climbing FlightAware ADS-B
Tue 08:53:15 AM 49.9657 2.0890 324° Northwest 429 494 25,800 1,263 Climbing FlightAware ADS-B (EGLF / FAB)
Tue 08:54:00 AM 50.0823 1.9563 315° West 411 473 26,000 146 Climbing FlightAware ADS-B
Tue 08:54:37 AM 50.1475 1.8570 315° West 408 470 26,000 1,000 Level FlightAware ADS-B
Tue 08:55:24 AM 50.2131 1.7591 315° West 414 476 27,400 1,778 Climbing FlightAware UK
Tue 08:55:31 AM 50.1763 1.8139 317° Northwest 414 476 27,600 900 Climbing FlightAware ADS-B (EGLF / FAB)
Tue 08:56:04 AM 50.2675 1.6792 316° Northwest 406 467 28,000 277 Climbing FlightAware ADS-B (KSCH)
Tue 08:56:36 AM 50.3115 1.6131 316° Northwest 406 467 27,900  Descending FlightAware UK
Tue 08:56:43 AM 50.2875 1.6495 316° Northwest 406 467 28,000 973 Climbing FlightAware ADS-B
Tue 08:57:13 AM 50.3171 1.6054 316° Northwest 407 468 28,500 1,600 Climbing FlightAware ADS-B (EGLF / FAB)
Tue 08:57:43 AM 50.3923 1.4925 316° Northwest 410 472 29,600 1,594 Climbing FlightAware ADS-B
Tue 08:58:17 AM 50.4476 1.4088 315° West 412 474 30,200 1,477 Climbing FlightAware ADS-B (KSCH)
Tue 08:58:48 AM 50.4917 1.3421 315° West 416 479 31,200 2,049 Climbing FlightAware UK
Tue 08:58:58 AM 50.5056 1.3210 315° West 407 468 31,600 2,333 Climbing FlightAware ADS-B (KSCH)
Tue 08:59:06 AM 50.5161 1.3051 315° West 407 468 31,900 1,625 Climbing FlightAware ADS-B (KSCH)
Tue 08:59:46 AM 50.5711 1.2215 315° West 407 468 32,900 1,500 Climbing FlightAware ADS-B (EGKK / LGW)
Tue 08:59:54 AM 50.5816 1.2054 315° West 407 468 33,100 1,000 Climbing FlightAware ADS-B (KSCH)
Tue 09:00:28 AM 50.6271 1.1358 315° West 414 476 33,600 738 Climbing FlightAware ADS-B (KSCH)
Tue 09:00:59 AM 50.6277 1.1350 316° Northwest 423 487 33,900 353 Climbing FlightAware ADS-B
Tue 09:01:36 AM 50.7248 0.9861 315° West 428 493 34,000 143 Climbing FlightAware ADS-B
Tue 09:01:41 AM 50.7217 0.9909 316° Northwest 434 499 34,000  Level FlightAware ADS-B
Tue 09:02:14 AM 50.7439 0.9568 316° Northwest 433 498 34,000  Level FlightAware ADS-B
Tue 09:02:45 AM 50.8239 0.8333 316° Northwest 434 499 34,000  Level FlightAware ADS-B (EGLL / LHR)
Tue 09:03:16 AM 50.8675 0.7656 316° Northwest 435 501 34,000  Level FlightAware ADS-B
Tue 09:03:20 AM 50.8729 0.7571 316° Northwest 435 501 34,000  Level FlightAware ADS-B (KSCH)
Tue 09:03:59 AM 50.9302 0.6679 315° West 431 496 34,000  Level FlightAware ADS-B (EGHI / SOU)
Tue 09:04:33 AM 50.9647 0.6140 315° West 436 502 34,000  Level FlightAware ADS-B
Tue 09:04:46 AM 50.9952 0.5662 316° Northwest 436 502 34,000  Level FlightAware ADS-B
Tue 09:05:18 AM 51.0432 0.4914 315° West 431 496 34,000  Level FlightAware ADS-B (EGHI / SOU)
Tue 09:05:55 AM 51.0955 0.4091 315° West 436 502 34,000  Level FlightAware ADS-B (EGHI / SOU)
Tue 09:06:25 AM 51.1381 0.3418 315° West 437 503 34,000  Level FlightAware ADS-B
Tue 09:06:57 AM 51.1847 0.2679 315° West 438 504 34,000  Level FlightAware ADS-B
Tue 09:07:29 AM 51.2298 0.1964 314° West 434 499 34,000  Level FlightAware ADS-B (EGKK / LGW)
Tue 09:07:32 AM 51.2339 0.1898 314° West 434 499 34,000  Level FlightAware ADS-B
Tue 09:07:41 AM 51.2471 0.1688 315° West 440 506 34,000  Level FlightAware ADS-B (EGHS)
Tue 09:08:13 AM 51.2933 0.0949 313° West 435 501 34,000  Level FlightAware ADS-B
Tue 09:08:25 AM 51.3088 0.0652 307° West 437 503 34,000  Level FlightAware ADS-B
Tue 09:08:40 AM 51.3112 0.0600 301° West 434 499 34,000  Level FlightAware ADS-B (EGBO)
Tue 09:08:50 AM 51.3291 0.0137 294° West 433 498 34,000  Level FlightAware ADS-B (EGLF / FAB)
Tue 09:09:04 AM 51.3424 -0.0345 290° West 433 498 34,000  Level FlightAware ADS-B (EGLC / LCY)
Tue 09:09:14 AM 51.3498 -0.0755 285° West 431 496 34,000  Level FlightAware ADS-B (EGBO)
Tue 09:09:24 AM 51.3547 -0.1084 284° West 433 498 34,000  Level FlightAware ADS-B
Tue 09:09:37 AM 51.3610 -0.1482 284° West 433 498 34,000  Level FlightAware ADS-B
Tue 09:09:44 AM 51.3589 -0.1349 285° West 432 497 34,000  Level FlightAware ADS-B (EGBO)
Tue 09:10:07 AM 51.3726 -0.2240 283° West 434 499 34,000  Level FlightAware ADS-B
Tue 09:10:15 AM 51.3730 -0.2269 284° West 433 498 34,000  Level FlightAware ADS-B (EGBO)
Tue 09:10:37 AM 51.3886 -0.3336 283° West 435 501 34,000  Level FlightAware ADS-B
Tue 09:10:44 AM 51.3907 -0.3480 284° West 435 501 34,000  Level FlightAware ADS-B (EGBO)
Tue 09:11:07 AM 51.4020 -0.4266 283° West 435 501 34,000  Level FlightAware ADS-B
Tue 09:11:11 AM 51.3979 -0.3978 284° West 435 501 34,000  Level FlightAware ADS-B (EGBO)
Tue 09:11:44 AM 51.4179 -0.5366 283° West 436 502 34,000  Level FlightAware ADS-B (EGHS)
Tue 09:11:45 AM 51.4191 -0.5447 283° West 436 502 34,000  Level FlightAware ADS-B (EGBO)
Tue 09:12:14 AM 51.4316 -0.6316 283° West 436 502 34,000  Level FlightAware ADS-B (EGBO)
Tue 09:12:16 AM 51.4334 -0.6438 283° West 436 502 34,000  Level FlightAware ADS-B (EGDM)
Tue 09:12:45 AM 51.4418 -0.7028 283° West 435 501 34,000  Level FlightAware ADS-B (EGBO)
Tue 09:12:46 AM 51.4466 -0.7361 283° West 436 502 34,000  Level FlightAware ADS-B
Tue 09:13:15 AM 51.4594 -0.8272 283° West 435 501 34,000  Level FlightAware ADS-B (EGBO)
Tue 09:13:16 AM 51.4596 -0.8288 283° West 436 502 34,000  Level FlightAware ADS-B (EGBP)
Tue 09:13:45 AM 51.4727 -0.9203 283° West 434 499 34,000  Level FlightAware ADS-B (EGBO)
Tue 09:13:46 AM 51.4737 -0.9272 283° West 435 501 34,000  Level FlightAware ADS-B (KSCH)
Tue 09:14:15 AM 51.4853 -1.0091 283° West 434 499 34,000  Level FlightAware ADS-B (EGBO)
Tue 09:14:20 AM 51.4864 -1.0170 283° West 435 501 34,000  Level FlightAware ADS-B (KANK)
Tue 09:14:45 AM 51.4988 -1.1064 283° West 435 501 34,000  Level FlightAware ADS-B (EGBO)
Tue 09:14:50 AM 51.4989 -1.1070 283° West 436 502 34,000 240 Level FlightAware ADS-B
Tue 09:15:10 AM 51.5104 -1.1897 281° West 434 499 34,100 522 Climbing FlightAware ADS-B (EGDJ / UPV)
Tue 09:15:13 AM 51.5117 -1.1994 281° West 434 499 34,200 1,200 Climbing FlightAware ADS-B
Tue 09:15:20 AM 51.5147 -1.2205 283° West 436 502 34,300 1,091 Climbing FlightAware ADS-B (EGBO)
Tue 09:15:24 AM 51.5167 -1.2354 281° West 434 499 34,400 1,091 Climbing FlightAware ADS-B (EGDJ / UPV)
Tue 09:15:31 AM 51.5198 -1.2580 283° West 435 501 34,500 923 Climbing FlightAware ADS-B (EGDM)
Tue 09:15:37 AM 51.5220 -1.2743 281° West 434 499 34,600 1,500 Climbing FlightAware ADS-B (EGKK / LGW)
Tue 09:15:43 AM 51.5248 -1.2949 281° West 435 501 34,800 1,385 Climbing FlightAware ADS-B
Tue 09:15:50 AM 51.5272 -1.3125 283° West 436 502 34,900 632 Climbing FlightAware ADS-B (EGBO)
Tue 09:16:02 AM 51.5330 -1.3545 281° West 436 502 35,000 353 Climbing FlightAware ADS-B
Tue 09:16:07 AM 51.5344 -1.3640 282° West 438 504 35,000  Level FlightAware ADS-B (EGLL / LHR)
Tue 09:16:15 AM 51.5369 -1.3830 282° West 437 503 35,000  Level FlightAware ADS-B
Tue 09:16:21 AM 51.5413 -1.4149 282° West 437 503 35,000  Level FlightAware ADS-B (EGBP)
Tue 09:16:25 AM 51.5400 -1.4057 281° West 436 502 35,000  Level FlightAware ADS-B (EGYM / MRH)
Tue 09:16:30 AM 51.5448 -1.4408 283° West 437 503 35,000  Level FlightAware ADS-B (EGBO)
Tue 09:16:40 AM 51.5496 -1.4756 281° West 435 501 35,000  Level FlightAware ADS-B (EGDJ / UPV)
Tue 09:16:45 AM 51.5495 -1.4750 282° West 437 503 35,000  Level FlightAware ADS-B
Tue 09:16:51 AM 51.5539 -1.5079 282° West 437 503 35,000  Level FlightAware ADS-B (EGLF / FAB)
Tue 09:16:54 AM 51.5552 -1.5174 281° West 435 501 35,000  Level FlightAware ADS-B
Tue 09:17:00 AM 51.5572 -1.5326 283° West 437 503 35,000  Level FlightAware ADS-B (EGBO)
Tue 09:17:10 AM 51.5614 -1.5638 282° West 437 503 35,000  Level FlightAware ADS-B
Tue 09:17:30 AM 51.5702 -1.6285 283° West 437 503 35,000  Level FlightAware ADS-B (EGBO)
Tue 09:17:32 AM 51.5713 -1.6367 281° West 436 502 35,000  Level FlightAware ADS-B (EGKK / LGW)
Tue 09:17:44 AM 51.5766 -1.6761 281° West 436 502 35,000  Level FlightAware ADS-B (EGHI / SOU)
Tue 09:17:51 AM 51.5792 -1.6955 281° West 437 503 35,000  Level FlightAware ADS-B (EGKK / LGW)
Tue 09:17:59 AM 51.5822 -1.7177 283° West 437 503 35,000  Level FlightAware ADS-B (EGBO)
Tue 09:18:02 AM 51.5818 -1.7148 282° West 438 504 35,000  Level FlightAware ADS-B (EGLF / FAB)
Tue 09:18:13 AM 51.5872 -1.7551 282° West 438 504 35,000  Level FlightAware ADS-B
Tue 09:18:16 AM 51.5901 -1.7773 281° West 436 502 35,000  Level FlightAware ADS-B
Tue 09:18:27 AM 51.5944 -1.8093 282° West 438 504 35,000  Level FlightAware ADS-B
Tue 09:18:29 AM 51.5954 -1.8169 283° West 437 503 35,000  Level FlightAware ADS-B (EGBO)
Tue 09:18:31 AM 51.5966 -1.8261 281° West 436 502 35,000  Level FlightAware ADS-B
Tue 09:18:42 AM 51.6013 -1.8620 282° West 438 504 35,000  Level FlightAware ADS-B (EGBP)
Tue 09:18:59 AM 51.6086 -1.9161 283° West 437 503 35,000  Level FlightAware ADS-B (EGBO)
Tue 09:19:06 AM 51.6112 -1.9361 281° West 436 502 35,000  Level FlightAware ADS-B
Tue 09:19:19 AM 51.6165 -1.9767 281° West 436 502 35,000  Level FlightAware ADS-B
Tue 09:19:23 AM 51.6186 -1.9922 282° West 437 503 35,000  Level FlightAware ADS-B (EGHS)
Tue 09:19:30 AM 51.6209 -2.0106 282° West 437 503 35,000  Level FlightAware ADS-B (EGBO)
Tue 09:19:38 AM 51.6252 -2.0433 282° West 436 502 35,000  Level FlightAware ADS-B
Tue 09:19:49 AM 51.6291 -2.0744 281° West 434 499 35,000  Level FlightAware ADS-B (KSCH)
Tue 09:20:00 AM 51.6326 -2.1006 282° West 435 501 35,000  Level FlightAware ADS-B (EGBO)
Tue 09:20:17 AM 51.6405 -2.1616 282° West 435 501 35,000  Level FlightAware ADS-B (EGYM / MRH)
Tue 09:20:23 AM 51.6431 -2.1809 281° West 434 499 35,000  Level FlightAware ADS-B
Tue 09:20:29 AM 51.6456 -2.1999 282° West 436 502 35,000  Level FlightAware ADS-B (EGBO)
Tue 09:20:40 AM 51.6499 -2.2335 281° West 435 501 35,000  Level FlightAware ADS-B (EGDJ / UPV)
Tue 09:20:59 AM 51.6576 -2.2937 282° West 435 501 35,000  Level FlightAware ADS-B (EGBO)
Tue 09:21:13 AM 51.6632 -2.3378 282° West 436 502 35,000  Level FlightAware ADS-B (KANK)
Tue 09:21:30 AM 51.6701 -2.3911 282° West 437 503 35,000  Level FlightAware ADS-B (EGBO)
Tue 09:21:35 AM 51.6720 -2.4061 282° West 437 503 35,000  Level FlightAware ADS-B (EGLF / FAB)
Tue 09:21:42 AM 51.6740 -2.4223 282° West 436 502 35,000  Level FlightAware ADS-B (EGDM)
Tue 09:21:55 AM 51.6805 -2.4729 280° West 436 502 35,000  Level FlightAware ADS-B (EGDJ / UPV)
Tue 09:22:00 AM 51.6817 -2.4824 282° West 437 503 35,000  Level FlightAware ADS-B (EGBO)
Tue 09:22:10 AM 51.6867 -2.5219 280° West 437 503 35,000  Level FlightAware ADS-B (EGDJ / UPV)
Tue 09:22:25 AM 51.6924 -2.5679 280° West 437 503 35,000  Level FlightAware ADS-B (EGDJ / UPV)
Tue 09:22:29 AM 51.6939 -2.5794 282° West 438 504 35,000  Level FlightAware ADS-B (EGBO)
Tue 09:22:36 AM 51.6969 -2.6033 282° West 439 505 35,000  Level FlightAware ADS-B (EGLF / FAB)
Tue 09:22:41 AM 51.6995 -2.6240 281° West 439 505 35,000  Level FlightAware ADS-B
Tue 09:23:00 AM 51.7064 -2.6790 282° West 438 504 35,000  Level FlightAware ADS-B (EGBO)
Tue 09:23:02 AM 51.7071 -2.6848 280° West 437 503 35,000  Level FlightAware ADS-B
Tue 09:23:08 AM 51.7093 -2.7027 281° West 440 506 35,000  Level FlightAware ADS-B (EGLF / FAB)
Tue 09:23:30 AM 51.7165 -2.7600 282° West 440 506 35,000  Level FlightAware ADS-B (EGBO)
Tue 09:23:38 AM 51.7206 -2.7937 281° West 440 506 35,000  Level FlightAware ADS-B (EGDM)
Tue 09:23:59 AM 51.7299 -2.8691 282° West 440 506 35,000  Level FlightAware ADS-B (EGBO)
Tue 09:24:09 AM 51.7327 -2.8919 281° West 440 506 35,000  Level FlightAware ADS-B
Tue 09:24:29 AM 51.7414 -2.9638 282° West 440 506 35,000  Level FlightAware ADS-B (EGBO)
Tue 09:24:39 AM 51.7447 -2.9904 281° West 440 506 35,000  Level FlightAware ADS-B
Tue 09:24:59 AM 51.7534 -3.0627 282° West 440 506 35,000  Level FlightAware ADS-B (EGBO)
Tue 09:25:10 AM 51.7571 -3.0933 281° West 441 507 35,000  Level FlightAware ADS-B (EGDM)
Tue 09:25:30 AM 51.7651 -3.1597 281° West 441 507 35,000  Level FlightAware ADS-B (EGBO)
Tue 09:25:40 AM 51.7691 -3.1931 281° West 441 507 35,000  Level FlightAware ADS-B
Tue 09:25:59 AM 51.7765 -3.2549 281° West 441 507 35,000  Level FlightAware ADS-B (EGBO)
Tue 09:26:11 AM 51.7814 -3.2945 281° West 440 506 35,000  Level FlightAware ADS-B
Tue 09:26:26 AM 51.7875 -3.3415 281° West 440 506 35,000  Level FlightAware ADS-B
Tue 09:26:54 AM 51.7995 -3.4325 282° West 441 507 35,000  Level FlightAware ADS-B (EGBO)
Tue 09:26:56 AM 51.8003 -3.4386 281° West 440 506 35,000  Level FlightAware ADS-B (EGDJ / UPV)
Tue 09:27:15 AM 51.8034 -3.4624 282° West 441 507 35,000  Level FlightAware ADS-B (EGLF / FAB)
Tue 09:27:25 AM 51.8120 -3.5284 282° West 441 507 35,000  Level FlightAware ADS-B (EGBO)
Tue 09:27:54 AM 51.8242 -3.6247 282° West 440 506 35,000  Level FlightAware ADS-B (EGBO)
Tue 09:28:08 AM 51.8297 -3.6678 282° West 442 509 35,000  Level FlightAware ADS-B (EGYM / MRH)
Tue 09:28:25 AM 51.8366 -3.7214 282° West 443 510 35,000  Level FlightAware ADS-B (EGBO)
Tue 09:28:39 AM 51.8429 -3.7719 281° West 445 512 35,000  Level FlightAware ADS-B (EGLF / FAB)
Tue 09:28:55 AM 51.8489 -3.8200 282° West 444 511 35,000  Level FlightAware ADS-B (EGBO)
Tue 09:29:19 AM 51.8564 -3.8799 281° West 446 513 35,000  Level FlightAware ADS-B
Tue 09:29:25 AM 51.8609 -3.9164 282° West 445 512 35,000  Level FlightAware ADS-B (EGBO)
Tue 09:29:49 AM 51.8674 -3.9689 281° West 447 514 35,000  Level FlightAware ADS-B (EIDW / DUB)
Tue 09:29:54 AM 51.8732 -4.0160 282° West 446 513 35,000  Level FlightAware ADS-B (EGBO)
Tue 09:30:19 AM 51.8830 -4.0959 281° West 448 516 35,000  Level FlightAware ADS-B (EGYM / MRH)
Tue 09:30:49 AM 51.8939 -4.1855 281° West 449 517 35,000  Level FlightAware ADS-B (EGYM / MRH)
Tue 09:30:54 AM 51.8968 -4.2088 282° West 449 517 35,000  Level FlightAware ADS-B (EGBO)
Tue 09:31:24 AM 51.9088 -4.3082 282° West 450 518 35,000  Level FlightAware ADS-B (EGBO)
Tue 09:31:54 AM 51.9207 -4.4064 282° West 450 518 35,000  Level FlightAware ADS-B (EGBO)
Tue 09:31:57 AM 51.9211 -4.4094 281° West 450 518 35,000  Level FlightAware ADS-B (EGYM / MRH)
Tue 09:32:25 AM 51.9331 -4.5093 281° West 450 518 35,000  Level FlightAware ADS-B (EGBO)
Tue 09:32:31 AM 51.9357 -4.5315 281° West 450 518 35,000  Level FlightAware ADS-B (EGYM / MRH)
Tue 09:32:54 AM 51.9448 -4.6083 281° West 450 518 35,000  Level FlightAware ADS-B (EGBO)
Tue 09:33:08 AM 51.9501 -4.6531 281° West 450 518 35,000  Level FlightAware ADS-B (EGCW)
Tue 09:33:24 AM 51.9563 -4.7069 281° West 449 517 35,000  Level FlightAware ADS-B (EGBO)
Tue 09:33:45 AM 51.9645 -4.7765 281° West 450 518 35,000  Level FlightAware ADS-B (EGYM / MRH)
Tue 09:33:54 AM 51.9675 -4.8023 281° West 449 517 35,000  Level FlightAware ADS-B (EGBO)
Tue 09:34:24 AM 51.9779 -4.8927 281° West 448 516 35,000  Level FlightAware ADS-B (EGBO)
Tue 09:34:26 AM 51.9793 -4.9043 281° West 449 517 35,000  Level FlightAware ADS-B (EGCW)
Tue 09:34:44 AM 51.9866 -4.9676 281° West 449 517 35,000  Level FlightAware ADS-B (KSCH)
Tue 09:34:59 AM 51.9952 -5.0189 288° West 447 514 35,000  Level FlightAware ADS-B (EGBO)
Tue 09:35:06 AM 52.0006 -5.0417 293° West 447 514 35,000  Level FlightAware ADS-B (EGYM / MRH)
Tue 09:35:19 AM 52.0113 -5.0777 300° West 447 514 35,000  Level FlightAware ADS-B (EGBO)
Tue 09:35:41 AM 52.0359 -5.1409 302° West 448 516 35,000  Level FlightAware ADS-B (EGCW)
Tue 09:36:00 AM 52.0548 -5.1916 301° West 447 514 35,000  Level FlightAware ADS-B (EGBO)
Tue 09:36:09 AM 52.0657 -5.2209 301° West 448 516 35,000  Level FlightAware ADS-B (EGYM / MRH)
Tue 09:36:28 AM 52.0815 -5.2631 302° West 447 514 35,000  Level FlightAware ADS-B (EGBO)
Tue 09:36:39 AM 52.0980 -5.3066 302° West 448 516 35,000  Level FlightAware ADS-B (EGYM / MRH)
Tue 09:36:58 AM 52.1187 -5.3606 302° West 449 517 35,000  Level FlightAware ADS-B (EGBO)
Tue 09:37:19 AM 52.1428 -5.4232 302° West 450 518 35,000  Level FlightAware ADS-B (EGYM / MRH)
Tue 09:37:23 AM 52.1439 -5.4261 302° West 449 517 35,000  Level FlightAware ADS-B (EGBO)
Tue 09:37:49 AM 52.1709 -5.4958 302° West 451 519 35,000  Level FlightAware ADS-B (EIDW / DUB)
Tue 09:37:59 AM 52.1798 -5.5191 303° West 450 518 35,000  Level FlightAware ADS-B (EGBO)
Tue 09:38:20 AM 52.1998 -5.5707 302° West 451 519 35,000  Level FlightAware ADS-B (EGCW)
Tue 09:38:29 AM 52.2196 -5.6224 302° West 450 518 35,000  Level FlightAware ADS-B (EGBO)
Tue 09:38:59 AM 52.2490 -5.7140 294° West 450 518 35,000  Level FlightAware ADS-B (EGBO)
Tue 09:39:07 AM 52.2553 -5.7383 293° West 451 519 35,000  Level FlightAware ADS-B
Tue 09:39:39 AM 52.2792 -5.8386 292° West 450 518 35,000  Level FlightAware ADS-B (EGBO)
Tue 09:40:09 AM 52.3005 -5.9288 292° West 450 518 35,000  Level FlightAware ADS-B (EGBO)
Tue 09:40:40 AM 52.3226 -6.0233 291° West 450 518 35,000  Level FlightAware ADS-B (EGBO)
Tue 09:40:47 AM 52.3295 -6.0528 291° West 451 519 35,000  Level FlightAware ADS-B
Tue 09:41:10 AM 52.3440 -6.1153 291° West 450 518 35,000  Level FlightAware ADS-B (EGBO)
Tue 09:41:24 AM 52.3349 -6.0763 291° West 451 519 35,000  Level FlightAware ADS-B
Tue 09:41:40 AM 52.3666 -6.2129 291° West 450 518 35,000  Level FlightAware ADS-B (EGBO)
Tue 09:41:58 AM 52.3701 -6.2281 291° West 451 519 35,000  Level FlightAware ADS-B (EGAE / LDY)
Tue 09:42:09 AM 52.3867 -6.3001 291° West 451 519 35,000  Level FlightAware ADS-B (EGBO)
Tue 09:42:28 AM 52.4023 -6.3681 290° West 453 521 35,000  Level FlightAware ADS-B (EGAE / LDY)
Tue 09:42:39 AM 52.3912 -6.3199 291° West 453 521 35,000  Level FlightAware ADS-B (EGBO)
Tue 09:43:00 AM 52.4182 -6.4374 290° West 453 521 35,000  Level FlightAware ADS-B (EGAE / LDY)
Tue 09:43:08 AM 52.4204 -6.4468 291° West 452 520 35,000  Level FlightAware ADS-B (EGBO)
Tue 09:43:30 AM 52.4417 -6.5406 290° West 453 521 35,000  Level FlightAware ADS-B (EGAE / LDY)
Tue 09:44:10 AM 52.4787 -6.7041 290° West 453 521 35,000  Level FlightAware ADS-B (EGAA / BFS)
Tue 09:44:41 AM 52.5007 -6.8016 290° West 454 522 35,000  Level FlightAware ADS-B (EGAA / BFS)
Tue 09:45:11 AM 52.5207 -6.8909 290° West 454 522 35,000  Level FlightAware ADS-B (EIWF / WAT)
Tue 09:45:43 AM 52.5456 -7.0027 290° West 453 521 35,000  Level FlightAware ADS-B (EGAA / BFS)
Tue 09:46:18 AM 52.5710 -7.1168 290° West 453 521 35,000  Level FlightAware ADS-B (EGAA / BFS)
Tue 09:46:48 AM 52.5921 -7.2122 290° West 453 521 35,000  Level FlightAware ADS-B (EGAA / BFS)
Tue 09:47:32 AM 52.6235 -7.3546 290° West 453 521 35,000  Level FlightAware ADS-B (EIWF / WAT)
Tue 09:48:10 AM 52.6316 -7.3921 290° West 455 524 35,000 -83 Level FlightAware ADS-B (EGAA / BFS)
Tue 09:48:44 AM 52.6739 -7.5875 290° West 454 522 34,900  Descending FlightAware UK
Tue 09:48:52 AM 52.6800 -7.6152 290° West 455 524 35,000 102 Climbing FlightAware ADS-B (EIWF / WAT)
Tue 09:49:43 AM 52.7151 -7.7781 289° West 456 525 35,000  Level FlightAware ADS-B (KHQM)
Tue 09:50:15 AM 52.7365 -7.8782 289° West 456 525 35,000  Level FlightAware ADS-B (KHQM)
Tue 09:50:51 AM 52.7605 -7.9913 289° West 456 525 35,000  Level FlightAware ADS-B (EGAE / LDY)
Tue 09:51:32 AM 52.7907 -8.1345 289° West 454 522 35,000  Level FlightAware ADS-B (EIWF / WAT)
Tue 09:52:13 AM 52.8190 -8.2689 289° West 453 521 35,000 -83 Level FlightAware ADS-B (EIWF / WAT)
Tue 09:52:44 AM 52.8405 -8.3719 289° West 452 520 34,900  Descending FlightAware UK
Tue 09:52:53 AM 52.8463 -8.3998 289° West 451 519 35,000 128 Climbing FlightAware ADS-B (EIWF / WAT)
Tue 09:53:31 AM 52.8723 -8.5249 289° West 451 519 35,000  Level FlightAware ADS-B (EIWF / WAT)
Tue 09:54:12 AM 52.8994 -8.6567 289° West 451 519 35,000  Level FlightAware ADS-B (EIWF / WAT)
Tue 09:54:47 AM 52.9233 -8.7737 289° West 451 519 35,000 -88 Level FlightAware ADS-B (EGAA / BFS)
Tue 09:55:20 AM 52.9448 -8.8791 289° West 450 518 34,900  Descending FlightAware UK
Tue 09:55:31 AM 52.9522 -8.9156 289° West 449 517 35,000 207 Climbing FlightAware ADS-B (EIWF / WAT)
Tue 09:55:49 AM 52.9634 -8.9713 288° West 449 517 35,000  Level FlightAware ADS-B (EIWF / WAT)
Tue 09:56:36 AM 52.9937 -9.1216 288° West 449 517 35,000  Level FlightAware ADS-B (KHQM)
Tue 09:57:17 AM 53.0202 -9.2547 288° West 448 516 35,000  Level FlightAware ADS-B (KHQM)
Tue 09:57:57 AM 53.0474 -9.3916 288° West 448 516 35,000  Level FlightAware ADS-B (KHQM)
Tue 09:58:29 AM 53.0677 -9.4947 288° West 448 516 35,000  Level FlightAware ADS-B (EGAA / BFS)
Tue 09:59:03 AM 53.0891 -9.6039 288° West 447 514 35,000  Level FlightAware ADS-B (EGAA / BFS)
Tue 09:59:33 AM 53.1082 -9.7015 288° West 446 513 35,000  Level FlightAware ADS-B (EGAA / BFS)
Tue 10:00:17 AM 53.1357 -9.8432 288° West 445 512 35,000  Level FlightAware ADS-B (KHQM)
Tue 10:00:57 AM 53.1607 -9.9743 288° West 447 514 35,000  Level FlightAware ADS-B (KHQM)
Tue 10:01:36 AM 53.1848 -10.1008 288° West 447 514 35,000  Level FlightAware ADS-B (KHQM)
Tue 10:03:14 AM 53.2439 -10.4133 287° West 445 512 35,000  Level FlightAware ADS-B (KHQM)
Tue 10:03:55 AM 53.2709 -10.5578 287° West 443 510 35,000  Level FlightAware ADS-B (KHQM)
Tue 10:05:08 AM 53.3149 -10.7960 287° West 440 506 35,000  Level FlightAware ADS-B (KHQM)
Tue 10:05:59 AM 53.3446 -10.9583 287° West 441 507 35,000  Level FlightAware ADS-B (KHQM)
Tue 10:06:39 AM 53.3687 -11.0917 287° West 441 507 35,000  Level FlightAware ADS-B (KHQM)
Tue 10:07:44 AM 53.4065 -11.3028 287° West 441 507 35,000  Level FlightAware ADS-B (KHQM)
Tue 10:08:18 AM 53.4264 -11.4141 287° West 441 507 35,000  Level FlightAware ADS-B (KHQM)
Tue 10:08:56 AM 53.4452 -11.5207 287° West 441 507 35,000  Level FlightAware ADS-B (KHQM)
Tue 10:51:00 AM 55.0000 -20.0000 274° West 479 551 35,000  Level ETMS Enhanced Traffic Management System
Tue 10:52:00 AM 54.6295 -20.5948 279° West  Level Estimated
Tue 10:53:00 AM 54.6487 -20.8113 279° West  Level Estimated
Tue 10:54:00 AM 54.6676 -21.0280 279° West  Level Estimated
Tue 10:55:00 AM 54.6861 -21.2448 278° West  Level Estimated
Tue 10:56:00 AM 54.7042 -21.4619 278° West  Level Estimated
Tue 10:57:00 AM 55.0492 -21.3924 273° West 479 551 35,000  Level FlightAware Transoceanic
Tue 10:58:00 AM 55.0559 -21.6248 273° West 479 551 35,000  Level FlightAware Transoceanic
Tue 10:59:00 AM 55.0621 -21.8572 273° West 479 551 35,000  Level FlightAware Transoceanic
Tue 11:00:00 AM 55.0679 -22.0897 272° West 479 551 35,000  Level FlightAware Transoceanic
Tue 11:01:00 AM 55.0732 -22.3223 272° West 479 551 35,000  Level FlightAware Transoceanic
Tue 11:02:00 AM 55.0781 -22.5550 272° West 479 551 35,000  Level FlightAware Transoceanic
Tue 11:03:00 AM 55.0825 -22.7877 272° West 479 551 35,000  Level FlightAware Transoceanic
Tue 11:04:00 AM 55.0865 -23.0204 272° West 479 551 35,000  Level FlightAware Transoceanic
Tue 11:05:00 AM 55.0901 -23.2532 271° West 479 551 35,000  Level FlightAware Transoceanic
Tue 11:06:00 AM 55.0932 -23.4860 271° West 479 551 35,000  Level FlightAware Transoceanic
Tue 11:07:00 AM 55.0959 -23.7189 271° West 479 551 35,000  Level FlightAware Transoceanic
Tue 11:08:00 AM 55.0981 -23.9518 271° West 479 551 35,000  Level FlightAware Transoceanic
Tue 11:09:00 AM 55.0998 -24.1847 271° West 479 551 35,000  Level FlightAware Transoceanic
Tue 11:10:00 AM 55.1012 -24.4176 270° West 479 551 35,000  Level FlightAware Transoceanic
Tue 11:11:00 AM 55.1021 -24.6506 270° West 479 551 35,000  Level FlightAware Transoceanic
Tue 11:12:00 AM 55.1025 -24.8835 270° West 479 551 35,000  Level FlightAware Transoceanic
Tue 11:13:00 AM 55.1025 -25.1165 270° West 479 551 35,000  Level FlightAware Transoceanic
Tue 11:14:00 AM 55.1021 -25.3494 270° West 479 551 35,000  Level FlightAware Transoceanic
Tue 11:15:00 AM 55.1012 -25.5824 270° West 479 551 35,000  Level FlightAware Transoceanic
Tue 11:16:00 AM 55.0998 -25.8153 269° West 479 551 35,000  Level FlightAware Transoceanic
Tue 11:17:00 AM 55.0981 -26.0482 269° West 479 551 35,000  Level FlightAware Transoceanic
Tue 11:18:00 AM 55.0959 -26.2811 269° West 479 551 35,000  Level FlightAware Transoceanic
Tue 11:19:00 AM 55.0932 -26.5140 269° West 479 551 35,000  Level FlightAware Transoceanic
Tue 11:20:00 AM 55.0901 -26.7468 269° West 479 551 35,000  Level FlightAware Transoceanic
Tue 11:21:00 AM 55.0865 -26.9796 268° West 479 551 35,000  Level FlightAware Transoceanic
Tue 11:22:00 AM 55.0825 -27.2123 268° West 479 551 35,000  Level FlightAware Transoceanic
Tue 11:23:00 AM 55.0781 -27.4450 268° West 479 551 35,000  Level FlightAware Transoceanic
Tue 11:24:00 AM 55.0732 -27.6777 268° West 479 551 35,000  Level FlightAware Transoceanic
Tue 11:25:00 AM 55.0679 -27.9103 268° West 479 551 35,000  Level FlightAware Transoceanic
Tue 11:26:00 AM 55.0621 -28.1428 267° West 479 551 35,000  Level FlightAware Transoceanic
Tue 11:27:00 AM 55.0559 -28.3752 267° West 479 551 35,000  Level FlightAware Transoceanic
Tue 11:28:00 AM 55.0492 -28.6076 267° West 479 551 35,000  Level FlightAware Transoceanic
Tue 11:29:00 AM 55.0421 -28.8399 267° West 479 551 35,000  Level FlightAware Transoceanic
Tue 11:30:00 AM 55.0346 -29.0721 267° West 479 551 35,000  Level FlightAware Transoceanic
Tue 11:31:00 AM 55.0266 -29.3042 266° West 479 551 35,000  Level FlightAware Transoceanic
Tue 11:32:00 AM 55.0182 -29.5363 266° West 479 551 35,000  Level FlightAware Transoceanic
Tue 11:33:00 AM 55.0093 -29.7682 266° West 479 551 35,000 10 Level FlightAware Transoceanic
Tue 11:34:00 AM 55.0005 -29.9886 266° West  Level FlightAware Approximate
Tue 11:35:00 AM 54.9912 -30.2090 266° West  Level FlightAware Approximate
Tue 11:36:00 AM 54.9875 -30.1970 264° West  Level FlightAware Approximate
Tue 11:37:00 AM 54.9733 -30.4165 264° West  Level FlightAware Approximate
Tue 11:38:00 AM 54.9586 -30.6358 263° West  Level FlightAware Approximate
Tue 11:39:00 AM 54.9435 -30.8549 263° West  Level FlightAware Approximate
Tue 11:40:00 AM 54.9281 -31.0739 263° West  Level FlightAware Approximate
Tue 11:41:00 AM 54.9122 -31.2927 263° West  Level FlightAware Approximate
Tue 11:42:00 AM 54.8960 -31.5114 263° West  Level FlightAware Approximate
Tue 11:43:00 AM 54.8794 -31.7298 263° West  Level FlightAware Approximate
Tue 11:44:00 AM 54.8623 -31.9481 262° West  Level FlightAware Approximate
Tue 11:45:00 AM 54.8449 -32.1662 262° West  Level FlightAware Approximate
Tue 11:46:00 AM 54.8271 -32.3841 262° West  Level FlightAware Approximate
Tue 11:47:00 AM 54.8089 -32.6018 262° West  Level FlightAware Approximate
Tue 11:48:00 AM 54.7903 -32.8193 262° West  Level FlightAware Approximate
Tue 11:49:00 AM 54.7725 -33.0369 262° West  Level FlightAware Approximate
Tue 11:50:00 AM 54.7549 -33.2545 262° West  Level FlightAware Approximate
Tue 11:51:00 AM 54.7369 -33.4718 262° West  Level FlightAware Approximate
Tue 11:52:00 AM 54.7185 -33.6890 262° West  Level FlightAware Approximate
Tue 11:53:00 AM 54.6998 -33.9060 262° West  Level FlightAware Approximate
Tue 11:54:00 AM 54.6806 -34.1227 261° West  Level FlightAware Approximate
Tue 11:55:00 AM 54.6611 -34.3393 261° West  Level FlightAware Approximate
Tue 11:56:00 AM 54.6412 -34.5557 261° West  Level FlightAware Approximate
Tue 11:57:00 AM 54.6209 -34.7718 261° West  Level FlightAware Approximate
Tue 11:58:00 AM 54.6002 -34.9878 261° West  Level FlightAware Approximate
Tue 11:59:00 AM 54.5791 -35.2035 261° West  Level FlightAware Approximate
Tue 12:00:00 PM 54.5577 -35.4189 260° West  Level FlightAware Approximate
Tue 12:01:00 PM 54.5358 -35.6342 260° West  Level FlightAware Approximate
Tue 12:02:00 PM 54.5136 -35.8492 260° West  Level FlightAware Approximate
Tue 12:03:00 PM 54.4910 -36.0640 260° West  Level FlightAware Approximate
Tue 12:04:00 PM 54.4680 -36.2785 260° West  Level FlightAware Approximate
Tue 12:05:00 PM 54.4447 -36.4929 259° West  Level FlightAware Approximate
Tue 12:06:00 PM 54.4210 -36.7069 259° West  Level FlightAware Approximate
Tue 12:07:00 PM 54.3968 -36.9207 259° West  Level FlightAware Approximate
Tue 12:08:00 PM 54.3723 -37.1343 259° West  Level FlightAware Approximate
Tue 12:09:00 PM 54.3473 -37.3475 259° West  Level FlightAware Approximate
Tue 12:10:00 PM 54.3218 -37.5604 258° West  Level FlightAware Approximate
Tue 12:11:00 PM 54.2958 -37.7731 258° West  Level FlightAware Approximate
Tue 12:12:00 PM 54.2696 -37.9855 258° West  Level FlightAware Approximate
Tue 12:13:00 PM 54.2429 -38.1976 258° West  Level FlightAware Approximate
Tue 12:14:00 PM 54.2159 -38.4095 258° West  Level FlightAware Approximate
Tue 12:15:00 PM 54.1885 -38.6211 258° West  Level FlightAware Approximate
Tue 12:16:00 PM 54.1608 -38.8324 257° West  Level FlightAware Approximate
Tue 12:17:00 PM 54.1326 -39.0434 257° West  Level FlightAware Approximate
Tue 12:18:00 PM 54.1041 -39.2541 257° West  Level FlightAware Approximate
Tue 12:19:00 PM 54.0753 -39.4645 257° West  Level FlightAware Approximate
Tue 12:20:00 PM 54.0461 -39.6746 257° West  Level FlightAware Approximate
Tue 12:21:00 PM 54.0165 -39.8845 257° West  Level FlightAware Approximate
Tue 12:22:00 PM 53.9945 -40.0963 265° West  Level FlightAware Approximate
Tue 12:23:00 PM 53.9820 -40.3109 264° West  Level FlightAware Approximate
Tue 12:24:00 PM 53.9691 -40.5252 264° West  Level FlightAware Approximate
Tue 12:25:00 PM 53.9559 -40.7395 264° West  Level FlightAware Approximate
Tue 12:26:00 PM 53.9422 -40.9536 264° West  Level FlightAware Approximate
Tue 12:27:00 PM 53.9282 -41.1676 264° West  Level FlightAware Approximate
Tue 12:28:00 PM 53.9138 -41.3815 264° West  Level FlightAware Approximate
Tue 12:29:00 PM 53.8990 -41.5951 263° West  Level FlightAware Approximate
Tue 12:30:00 PM 53.8838 -41.8087 263° West  Level FlightAware Approximate
Tue 12:31:00 PM 53.8683 -42.0220 263° West  Level FlightAware Approximate
Tue 12:32:00 PM 53.8524 -42.2353 263° West  Level FlightAware Approximate
Tue 12:33:00 PM 53.8361 -42.4483 263° West  Level FlightAware Approximate
Tue 12:34:00 PM 53.8194 -42.6612 263° West  Level FlightAware Approximate
Tue 12:35:00 PM 53.8023 -42.8739 262° West  Level FlightAware Approximate
Tue 12:36:00 PM 53.7849 -43.0865 262° West  Level FlightAware Approximate
Tue 12:37:00 PM 53.7671 -43.2988 262° West  Level FlightAware Approximate
Tue 12:38:00 PM 53.7489 -43.5110 262° West  Level FlightAware Approximate
Tue 12:39:00 PM 53.7304 -43.7230 262° West  Level FlightAware Approximate
Tue 12:40:00 PM 53.7114 -43.9348 261° West  Level FlightAware Approximate
Tue 12:41:00 PM 53.6921 -44.1464 261° West  Level FlightAware Approximate
Tue 12:42:00 PM 53.6725 -44.3578 261° West  Level FlightAware Approximate
Tue 12:43:00 PM 53.6524 -44.5690 261° West  Level FlightAware Approximate
Tue 12:44:00 PM 53.6320 -44.7800 261° West  Level FlightAware Approximate
Tue 12:45:00 PM 53.6112 -44.9909 261° West  Level FlightAware Approximate
Tue 12:46:00 PM 53.5900 -45.2015 260° West  Level FlightAware Approximate
Tue 12:47:00 PM 53.5685 -45.4118 260° West  Level FlightAware Approximate
Tue 12:48:00 PM 53.5466 -45.6220 260° West  Level FlightAware Approximate
Tue 12:49:00 PM 53.5243 -45.8320 260° West  Level FlightAware Approximate
Tue 12:50:00 PM 53.5017 -46.0417 260° West  Level FlightAware Approximate
Tue 12:51:00 PM 53.4787 -46.2512 260° West  Level FlightAware Approximate
Tue 12:52:00 PM 53.4553 -46.4605 259° West  Level FlightAware Approximate
Tue 12:53:00 PM 53.4316 -46.6695 259° West  Level FlightAware Approximate
Tue 12:54:00 PM 53.4075 -46.8783 259° West  Level FlightAware Approximate
Tue 12:55:00 PM 53.3831 -47.0869 259° West  Level FlightAware Approximate
Tue 12:56:00 PM 53.3582 -47.2952 259° West  Level FlightAware Approximate
Tue 12:57:00 PM 53.3331 -47.5033 259° West  Level FlightAware Approximate
Tue 12:58:00 PM 53.3075 -47.7111 258° West  Level FlightAware Approximate
Tue 12:59:00 PM 53.2816 -47.9187 258° West  Level FlightAware Approximate
Tue 01:00:00 PM 53.2553 -48.1260 258° West  Level FlightAware Approximate
Tue 01:01:00 PM 53.2287 -48.3331 258° West  Level FlightAware Approximate
Tue 01:02:00 PM 53.2017 -48.5399 258° West  Level FlightAware Approximate
Tue 01:03:00 PM 53.1744 -48.7465 258° West  Level FlightAware Approximate
Tue 01:04:00 PM 53.1467 -48.9528 257° West  Level FlightAware Approximate
Tue 01:05:00 PM 53.1186 -49.1588 257° West  Level FlightAware Approximate
Tue 01:06:00 PM 53.0902 -49.3646 257° West  Level FlightAware Approximate
Tue 01:07:00 PM 53.0615 -49.5700 257° West  Level FlightAware Approximate
Tue 01:08:00 PM 53.0323 -49.7752 257° West  Level FlightAware Approximate
Tue 01:09:00 PM 53.0029 -49.9802 257° West  Level FlightAware Approximate
Tue 01:10:00 PM 52.9574 -50.1764 248° West  Level FlightAware Approximate
Tue 01:11:00 PM 52.9099 -50.3714 248° West  Level FlightAware Approximate
Tue 01:12:00 PM 52.8620 -50.5659 248° West  Level FlightAware Approximate
Tue 01:13:00 PM 52.8139 -50.7600 248° West  Level FlightAware Approximate
Tue 01:14:00 PM 52.7654 -50.9537 248° West  Level FlightAware Approximate
Tue 01:15:00 PM 52.7166 -51.1469 247° West  Level FlightAware Approximate
Tue 01:16:00 PM 52.6676 -51.3397 247° West  Level FlightAware Approximate
Tue 01:16:29 PM 52.2500 -52.8333 247° West 470 541 36,000  Level Moncton Center
Tue 01:17:00 PM 52.6181 -51.5321 247° West  Level FlightAware Approximate
Tue 01:17:29 PM 52.2000 -53.0333 248° West 470 541 36,000  Level Moncton Center
Tue 01:18:00 PM 52.5736 -51.7042 247° West  Level FlightAware Approximate
Tue 01:18:29 PM 52.1500 -53.2167 246° West 470 541 36,000  Level Moncton Center
Tue 01:19:00 PM 52.5288 -51.8760 247° West  Level FlightAware Approximate
Tue 01:19:29 PM 52.1000 -53.4167 248° West 480 552 36,000  Level Moncton Center
Tue 01:20:00 PM 52.4837 -52.0474 247° West  Level FlightAware Approximate
Tue 01:20:29 PM 52.0667 -53.6167 255° West 480 552 36,000  Level Moncton Center
Tue 01:21:00 PM 52.4384 -52.2184 247° West  Level FlightAware Approximate
Tue 01:21:29 PM 52.0500 -53.8500 263° West 490 564 36,000  Level Moncton Center
Tue 01:22:29 PM 52.0000 -54.0500 248° West 480 552 36,000  Level Moncton Center
Tue 01:23:29 PM 51.9667 -54.2500 255° West 480 552 36,000  Level Moncton Center
Tue 01:24:19 PM 51.9333 -54.4500 255° West 500 575 36,000  Level Gander Center
Tue 01:25:19 PM 51.8833 -54.6333 246° West 480 552 36,000  Level Gander Center
Tue 01:26:29 PM 51.8333 -54.9000 253° West 500 575 36,000  Level Moncton Center
Tue 01:27:29 PM 51.8000 -55.1000 255° West 500 575 36,000  Level Moncton Center
Tue 01:28:29 PM 51.7500 -55.3333 251° West 510 587 36,000  Level Moncton Center
Tue 01:29:29 PM 51.7167 -55.5500 256° West 510 587 36,000  Level Moncton Center
Tue 01:30:29 PM 51.6667 -55.7833 251° West 510 587 36,000  Level Moncton Center
Tue 01:31:29 PM 51.6167 -55.9833 248° West 500 575 36,000  Level Moncton Center
Tue 01:32:29 PM 51.5667 -56.1833 248° West 510 587 36,000  Level Moncton Center
Tue 01:33:29 PM 51.5333 -56.4000 256° West 500 575 36,000  Level Moncton Center
Tue 01:34:29 PM 51.4833 -56.6167 250° West 520 598 36,000  Level Moncton Center
Tue 01:35:29 PM 51.4333 -56.8500 251° West 520 598 36,000  Level Moncton Center
Tue 01:36:29 PM 51.4000 -57.0667 256° West 510 587 36,000  Level Moncton Center
Tue 01:37:29 PM 51.3333 -57.2833 244° Southwest 520 598 36,000  Level Moncton Center
Tue 01:38:29 PM 51.3000 -57.4833 255° West 530 610 36,000  Level Moncton Center
Tue 01:39:29 PM 51.2500 -57.7000 250° West 520 598 36,000  Level Moncton Center
Tue 01:40:29 PM 51.1833 -57.9333 246° West 520 598 36,000  Level Moncton Center
Tue 01:41:29 PM 51.1500 -58.1500 256° West 520 598 36,000  Level Moncton Center
Tue 01:42:29 PM 51.1000 -58.3667 250° West 520 598 36,000  Level Moncton Center
Tue 01:43:29 PM 51.0333 -58.5667 242° Southwest 520 598 36,000  Level Moncton Center
Tue 01:44:29 PM 50.9833 -58.8167 252° West 520 598 36,000  Level Moncton Center
Tue 01:45:29 PM 50.9500 -59.0000 254° West 520 598 36,000  Level Moncton Center
Tue 01:46:29 PM 50.8833 -59.2500 247° West 520 598 36,000  Level Moncton Center
Tue 01:47:29 PM 50.8333 -59.4333 247° West 530 610 36,000 50 Level Moncton Center
Tue 01:48:29 PM 50.7833 -59.6500 250° West 520 598 36,100 800 Climbing Moncton Center
Tue 01:49:29 PM 50.7333 -59.8667 250° West 520 598 37,600 950 Climbing Moncton Center
Tue 01:50:29 PM 50.6667 -60.0833 244° Southwest 520 598 38,000 200 Climbing Moncton Center
Tue 01:51:29 PM 50.6333 -60.3000 256° West 520 598 38,000  Level Moncton Center
Tue 01:52:29 PM 50.5667 -60.5167 244° Southwest 520 598 38,000  Level Moncton Center
Tue 01:53:29 PM 50.5167 -60.7167 249° West 520 598 38,000  Level Moncton Center
Tue 01:54:29 PM 50.4667 -60.9500 251° West 510 587 38,000  Level Moncton Center
Tue 01:55:29 PM 50.4000 -61.1333 240° Southwest 510 587 38,000  Level Moncton Center
Tue 01:56:29 PM 50.3500 -61.3333 249° West 500 575 38,000  Level Moncton Center
Tue 01:57:29 PM 50.3000 -61.5333 249° West 510 587 38,000  Level Moncton Center
Tue 01:58:29 PM 50.2500 -61.7500 250° West 510 587 38,000  Level Moncton Center
Tue 01:59:29 PM 50.1833 -61.9667 244° Southwest 520 598 38,000  Level Moncton Center
Tue 02:00:29 PM 50.1167 -62.1833 244° Southwest 520 598 38,000  Level Moncton Center
Tue 02:01:29 PM 50.0833 -62.3833 256° West 510 587 38,000  Level Moncton Center
Tue 02:02:19 PM 50.0333 -62.5500 245° Southwest 510 587 38,000  Level Gander Center
Tue 02:03:19 PM 49.9667 -62.7333 241° Southwest 510 587 38,000  Level Gander Center
Tue 02:04:29 PM 49.9000 -63.0000 249° West 510 587 38,000  Level Moncton Center
Tue 02:05:29 PM 49.8333 -63.1833 241° Southwest 510 587 38,000  Level Moncton Center
Tue 02:06:29 PM 49.7833 -63.3833 249° West 510 587 38,000  Level Moncton Center
Tue 02:07:29 PM 49.7167 -63.6000 245° Southwest 510 587 38,000  Level Moncton Center
Tue 02:08:29 PM 49.6667 -63.7833 247° West 500 575 38,000  Level Moncton Center
Tue 02:09:29 PM 49.6000 -63.9833 243° Southwest 500 575 38,000  Level Moncton Center
Tue 02:10:29 PM 49.5500 -64.1667 247° West 500 575 38,000  Level Moncton Center
Tue 02:11:29 PM 49.4833 -64.3667 243° Southwest 500 575 38,000  Level Moncton Center
Tue 02:12:29 PM 49.4333 -64.5500 247° West 500 575 38,000  Level Moncton Center
Tue 02:13:29 PM 49.3667 -64.7500 243° Southwest 500 575 38,000  Level Moncton Center
Tue 02:14:29 PM 49.3167 -64.9333 247° West 500 575 38,000  Level Moncton Center
Tue 02:15:29 PM 49.2500 -65.1333 243° Southwest 500 575 38,000  Level Moncton Center
Tue 02:16:29 PM 49.2000 -65.3167 247° West 490 564 38,000  Level Moncton Center
Tue 02:17:29 PM 49.1500 -65.5000 247° West 490 564 38,000  Level Moncton Center
Tue 02:18:29 PM 49.0833 -65.7000 243° Southwest 490 564 38,000  Level Moncton Center
Tue 02:19:29 PM 49.0333 -65.8833 247° West 490 564 38,000  Level Moncton Center
Tue 02:20:29 PM 48.9667 -66.0833 243° Southwest 490 564 38,000  Level Moncton Center
Tue 02:21:29 PM 48.9000 -66.2500 239° Southwest 490 564 38,000  Level Moncton Center
Tue 02:22:29 PM 48.8333 -66.4500 243° Southwest 490 564 38,000  Level Moncton Center
Tue 02:23:29 PM 48.7833 -66.6333 248° West 480 552 38,000  Level Moncton Center
Tue 02:24:29 PM 48.7333 -66.8167 248° West 480 552 38,000  Level Moncton Center
Tue 02:25:29 PM 48.6667 -66.9833 239° Southwest 480 552 38,000  Level Moncton Center
Tue 02:26:29 PM 48.6000 -67.1500 239° Southwest 480 552 38,000  Level Moncton Center
Tue 02:27:29 PM 48.5333 -67.3500 243° Southwest 480 552 38,000  Level Moncton Center
Tue 02:28:29 PM 48.4833 -67.5333 248° West 490 564 38,000  Level Moncton Center
Tue 02:29:29 PM 48.4167 -67.7333 243° Southwest 490 564 38,000  Level Moncton Center
Tue 02:30:29 PM 48.3500 -67.9000 239° Southwest 490 564 38,000  Level Moncton Center
Tue 02:31:29 PM 48.3000 -68.0667 246° West 490 564 38,000  Level Moncton Center
Tue 02:36:27 PM 47.9906 -68.9565 242° Southwest 470 541 38,000  Level FlightAware ADS-B
Tue 02:37:26 PM 47.9333 -69.1142 242° Southwest 467 537 38,000  Level FlightAware ADS-B
Tue 02:38:40 PM 47.8537 -69.3318 241° Southwest 468 539 38,000  Level FlightAware ADS-B
Tue 02:39:38 PM 47.7975 -69.4844 241° Southwest 465 535 38,000  Level FlightAware ADS-B
Tue 02:40:10 PM 47.7622 -69.5849 245° Southwest 460 529 38,000  Level FlightAware ADS-B
Tue 02:41:09 PM 47.7156 -69.7574 248° West 455 524 38,000  Level FlightAware ADS-B
Tue 02:41:39 PM 47.6967 -69.8255 248° West 453 521 38,000  Level FlightAware ADS-B
Tue 02:42:10 PM 47.6679 -69.9306 248° West 451 519 38,000  Level FlightAware ADS-B
Tue 02:42:40 PM 47.6450 -70.0167 249° West 449 517 38,000  Level FlightAware ADS-B
Tue 02:43:10 PM 47.6226 -70.1010 249° West 447 514 38,000  Level FlightAware ADS-B
Tue 02:43:40 PM 47.5998 -70.1864 249° West 445 512 38,000  Level FlightAware ADS-B
Tue 02:45:10 PM 47.5326 -70.4365 248° West 442 509 38,000  Level FlightAware ADS-B
Tue 02:45:41 PM 47.5093 -70.5223 248° West 441 507 38,000  Level FlightAware ADS-B
Tue 02:46:55 PM 47.4521 -70.7311 248° West 441 507 38,000  Level FlightAware ADS-B
Tue 02:47:25 PM 47.4294 -70.8134 248° West 441 507 38,000  Level FlightAware ADS-B
Tue 02:48:25 PM 47.3831 -70.9801 248° West 440 506 38,000  Level FlightAware ADS-B
Tue 02:48:55 PM 47.3596 -71.0644 248° West 440 506 38,000  Level FlightAware ADS-B
Tue 02:49:25 PM 47.3367 -71.1462 248° West 439 505 38,000  Level FlightAware ADS-B
Tue 02:49:55 PM 47.3127 -71.2316 248° West 439 505 38,000  Level FlightAware ADS-B
Tue 02:50:37 PM 47.2800 -71.3480 248° West 440 506 38,000  Level FlightAware ADS-B
Tue 02:50:42 PM 47.2770 -71.3580 248° West 440 506 38,000  Level FlightAware ADS-B
Tue 02:51:17 PM 47.2490 -71.4570 248° West 441 507 38,000  Level FlightAware ADS-B
Tue 02:51:47 PM 47.2270 -71.5340 248° West 440 506 38,000  Level FlightAware ADS-B
Tue 02:51:51 PM 47.2230 -71.5493 247° West 439 505 38,000  Level FlightAware ADS-B
Tue 02:52:21 PM 47.1990 -71.6330 247° West 437 503 38,000  Level FlightAware ADS-B
Tue 02:52:42 PM 47.1830 -71.6900 248° West 438 504 38,000  Level FlightAware ADS-B
Tue 02:53:17 PM 47.1560 -71.7840 248° West 437 503 38,000  Level FlightAware ADS-B
Tue 02:53:21 PM 47.1531 -71.7935 247° West 437 503 38,000  Level FlightAware ADS-B
Tue 02:53:51 PM 47.1290 -71.8770 247° West 436 502 38,000  Level FlightAware ADS-B
Tue 02:54:21 PM 47.1060 -71.9580 247° West 438 504 38,000  Level FlightAware ADS-B
Tue 02:54:37 PM 47.0932 -72.0005 247° West 437 503 38,000  Level FlightAware ADS-B
Tue 02:54:56 PM 47.0770 -72.0550 247° West 438 504 38,000  Level FlightAware ADS-B
Tue 02:55:27 PM 47.0530 -72.1390 247° West 439 505 38,000  Level FlightAware ADS-B
Tue 02:55:50 PM 47.0351 -72.2006 247° West 439 505 38,000  Level FlightAware ADS-B
Tue 02:56:03 PM 47.0240 -72.2370 247° West 440 506 38,000  Level FlightAware ADS-B
Tue 02:56:39 PM 46.9980 -72.3280 247° West 441 507 38,000  Level FlightAware ADS-B
Tue 02:57:03 PM 46.9763 -72.4007 247° West 440 506 38,000  Level FlightAware ADS-B
Tue 02:57:15 PM 46.9670 -72.4320 247° West 441 507 38,000  Level FlightAware ADS-B
Tue 02:57:45 PM 46.9420 -72.5160 247° West 440 506 38,000  Level FlightAware ADS-B
Tue 02:58:02 PM 46.9289 -72.5605 247° West 439 505 38,000  Level FlightAware ADS-B
Tue 02:58:21 PM 46.9130 -72.6130 247° West 440 506 38,000  Level FlightAware ADS-B
Tue 02:58:58 PM 46.8840 -72.7120 247° West 440 506 38,000  Level FlightAware ADS-B
Tue 02:59:27 PM 46.8600 -72.7920 247° West 440 506 38,000  Level FlightAware ADS-B
Tue 02:59:57 PM 46.8350 -72.8740 247° West 440 506 38,000  Level FlightAware ADS-B
Tue 03:00:27 PM 46.8110 -72.9550 247° West 440 506 38,000  Level FlightAware ADS-B
Tue 03:01:03 PM 46.7810 -73.0530 247° West 440 506 38,000  Level FlightAware ADS-B
Tue 03:01:39 PM 46.7530 -73.1480 247° West 441 507 38,000  Level FlightAware ADS-B
Tue 03:02:15 PM 46.7230 -73.2440 247° West 443 510 38,000  Level FlightAware ADS-B
Tue 03:02:51 PM 46.6930 -73.3440 246° West 444 511 38,000  Level FlightAware ADS-B
Tue 03:03:27 PM 46.6630 -73.4420 246° West 446 513 38,000  Level FlightAware ADS-B
Tue 03:04:15 PM 46.6230 -73.5720 246° West 448 516 38,000  Level FlightAware ADS-B
Tue 03:04:45 PM 46.5970 -73.6550 246° West 447 514 38,000  Level FlightAware ADS-B
Tue 03:05:28 PM 46.5600 -73.7730 246° West 447 514 38,000  Level FlightAware ADS-B
Tue 03:06:01 PM 46.5320 -73.8630 246° West 447 514 38,000  Level FlightAware ADS-B
Tue 03:06:31 PM 46.5070 -73.9430 246° West 447 514 38,000  Level FlightAware ADS-B
Tue 03:06:45 PM 46.4950 -73.9815 246° West 446 513 38,000  Level FlightAware ADS-B
Tue 03:07:07 PM 46.4760 -74.0420 246° West 445 512 38,000  Level FlightAware ADS-B
Tue 03:07:29 PM 46.4573 -74.1012 246° West 444 511 38,000  Level FlightAware ADS-B
Tue 03:07:44 PM 46.4450 -74.1390 246° West 444 511 38,000  Level FlightAware ADS-B
Tue 03:08:19 PM 46.4150 -74.2360 246° West 443 510 38,000  Level FlightAware ADS-B
Tue 03:08:55 PM 46.3840 -74.3330 246° West 444 511 38,000  Level FlightAware ADS-B
Tue 03:09:25 PM 46.3580 -74.4130 246° West 445 512 38,000  Level FlightAware ADS-B
Tue 03:10:01 PM 46.3270 -74.5090 246° West 445 512 38,000  Level FlightAware ADS-B
Tue 03:10:30 PM 46.3024 -74.5870 245° Southwest 444 511 38,000  Level FlightAware ADS-B
Tue 03:10:38 PM 46.2960 -74.6070 245° Southwest 446 513 38,000  Level FlightAware ADS-B
Tue 03:11:08 PM 46.2697 -74.6886 245° Southwest 445 512 38,000  Level FlightAware ADS-B
Tue 03:11:14 PM 46.2650 -74.7030 245° Southwest 446 513 38,000  Level FlightAware ADS-B
Tue 03:11:40 PM 46.2577 -74.7259 245° Southwest 446 513 38,000  Level FlightAware ADS-B
Tue 03:11:49 PM 46.2340 -74.7990 245° Southwest 447 514 38,000  Level FlightAware ADS-B
Tue 03:12:20 PM 46.2071 -74.8817 245° Southwest 446 513 38,000  Level FlightAware ADS-B
Tue 03:12:55 PM 46.1770 -74.9760 245° Southwest 446 513 38,000  Level FlightAware ADS-B
Tue 03:12:59 PM 46.1743 -74.9826 245° Southwest 446 513 38,000  Level FlightAware ADS-B
Tue 03:13:26 PM 46.1500 -75.0570 245° Southwest 446 513 38,000  Level FlightAware ADS-B
Tue 03:13:39 PM 46.1373 -75.0954 245° Southwest 446 513 38,000  Level FlightAware ADS-B
Tue 03:13:56 PM 46.1230 -75.1390 245° Southwest 446 513 38,000  Level FlightAware ADS-B
Tue 03:14:20 PM 46.1018 -75.2033 245° Southwest 446 513 38,000  Level FlightAware ADS-B
Tue 03:14:44 PM 46.0810 -75.2670 245° Southwest 448 516 38,000  Level FlightAware ADS-B
Tue 03:15:01 PM 46.0670 -75.3089 245° Southwest 447 514 38,000  Level FlightAware ADS-B
Tue 03:15:20 PM 46.0490 -75.3630 245° Southwest 448 516 38,000  Level FlightAware ADS-B
Tue 03:15:41 PM 46.0305 -75.4189 245° Southwest 448 516 38,000  Level FlightAware ADS-B
Tue 03:15:55 PM 46.0170 -75.4590 245° Southwest 449 517 38,000  Level FlightAware ADS-B
Tue 03:16:25 PM 45.9900 -75.5400 245° Southwest 449 517 38,000  Level FlightAware ADS-B
Tue 03:16:29 PM 45.9873 -75.5487 244° Southwest 449 517 38,000  Level FlightAware ADS-B
Tue 03:16:57 PM 45.9610 -75.6260 245° Southwest 450 518 38,000  Level FlightAware ADS-B
Tue 03:17:18 PM 45.9426 -75.6819 244° Southwest 450 518 38,000  Level FlightAware ADS-B
Tue 03:17:54 PM 45.9100 -75.7780 243° Southwest 451 519 38,000  Level FlightAware ADS-B
Tue 03:18:06 PM 45.8987 -75.8071 240° Southwest 451 519 38,000  Level FlightAware ADS-B
Tue 03:18:31 PM 45.8747 -75.8633 238° Southwest 451 519 38,000  Level FlightAware ADS-B (CYYZ)
Tue 03:18:36 PM 45.8646 -75.8850 237° Southwest 452 520 38,000  Level FlightAware ADS-B
Tue 03:19:01 PM 45.8374 -75.9428 236° Southwest 452 520 38,000  Level FlightAware ADS-B (CYYZ)
Tue 03:19:18 PM 45.8273 -75.9643 236° Southwest 452 520 38,000  Level FlightAware ADS-B
Tue 03:19:35 PM 45.7954 -76.0316 236° Southwest 452 520 38,000  Level FlightAware ADS-B (CYYZ)
Tue 03:19:55 PM 45.8095 -76.0019 236° Southwest 452 520 38,000  Level FlightAware ADS-B
Tue 03:20:47 PM 45.7135 -76.2040 236° Southwest 451 519 38,000  Level FlightAware ADS-B (CYYZ)
Tue 03:20:51 PM 45.7066 -76.2185 236° Southwest 452 520 38,000  Level FlightAware ADS-B
Tue 03:21:19 PM 45.6740 -76.2860 236° Southwest 452 520 38,000  Level FlightAware ADS-B
Tue 03:21:32 PM 45.6616 -76.3128 236° Southwest 452 520 38,000  Level FlightAware ADS-B (CYYZ)
Tue 03:21:49 PM 45.6380 -76.3620 236° Southwest 453 521 38,000  Level FlightAware ADS-B
Tue 03:22:03 PM 45.6228 -76.3939 236° Southwest 451 519 38,000  Level FlightAware ADS-B (CYYZ)
Tue 03:22:12 PM 45.6114 -76.4177 236° Southwest 451 519 38,000  Level FlightAware ADS-B
Tue 03:22:33 PM 45.5875 -76.4677 236° Southwest 451 519 38,000  Level FlightAware ADS-B (CYYZ)
Tue 03:22:48 PM 45.5690 -76.5070 236° Southwest 451 519 38,000  Level FlightAware ADS-B
Tue 03:22:53 PM 45.5659 -76.5124 236° Southwest 450 518 38,000  Level FlightAware ADS-B
Tue 03:23:18 PM 45.5347 -76.5773 236° Southwest 450 518 38,000  Level FlightAware ADS-B (CYYZ)
Tue 03:23:31 PM 45.5193 -76.6090 236° Southwest 450 518 38,000  Level FlightAware ADS-B
Tue 03:23:34 PM 45.5155 -76.6170 236° Southwest 450 518 38,000  Level FlightAware ADS-B (CYYZ)
Tue 03:24:11 PM 45.4721 -76.7063 235° Southwest 450 518 38,000  Level FlightAware ADS-B
Tue 03:24:18 PM 45.4628 -76.7256 236° Southwest 449 517 38,000  Level FlightAware ADS-B (CYYZ)
Tue 03:24:52 PM 45.4233 -76.8069 235° Southwest 449 517 38,000  Level FlightAware ADS-B
Tue 03:25:04 PM 45.4116 -76.8311 236° Southwest 449 517 38,000  Level FlightAware ADS-B (CYYZ)
Tue 03:25:32 PM 45.3758 -76.9046 235° Southwest 450 518 38,000  Level FlightAware ADS-B
Tue 03:25:48 PM 45.3627 -76.9312 236° Southwest 450 518 38,000  Level FlightAware ADS-B (CYYZ)
Tue 03:26:10 PM 45.3313 -76.9955 235° Southwest 451 519 38,000  Level FlightAware ADS-B
Tue 03:26:19 PM 45.3207 -77.0171 236° Southwest 451 519 38,000  Level FlightAware ADS-B (CYYZ)
Tue 03:26:49 PM 45.2865 -77.0871 236° Southwest 452 520 38,000  Level FlightAware ADS-B (CYYZ)
Tue 03:27:03 PM 45.2683 -77.1243 235° Southwest 453 521 38,000  Level FlightAware ADS-B
Tue 03:27:20 PM 45.2482 -77.1651 236° Southwest 453 521 38,000  Level FlightAware ADS-B (CYYZ)
Tue 03:27:42 PM 45.2216 -77.2190 235° Southwest 454 522 38,000  Level FlightAware ADS-B
Tue 03:27:50 PM 45.2133 -77.2358 236° Southwest 453 521 38,000  Level FlightAware ADS-B (CYYZ)
Tue 03:28:19 PM 45.1771 -77.3089 235° Southwest 454 522 38,000  Level FlightAware ADS-B
Tue 03:28:35 PM 45.1588 -77.3458 236° Southwest 453 521 38,000  Level FlightAware ADS-B (CYYZ)
Tue 03:28:59 PM 45.1299 -77.4042 235° Southwest 455 524 38,000  Level FlightAware ADS-B
Tue 03:29:05 PM 45.1213 -77.4214 236° Southwest 455 524 38,000  Level FlightAware ADS-B (CYYZ)
Tue 03:29:36 PM 45.0851 -77.4941 235° Southwest 455 524 38,000  Level FlightAware ADS-B (CYYZ)
Tue 03:29:38 PM 45.0814 -77.5016 235° Southwest 456 525 38,000  Level FlightAware ADS-B
Tue 03:30:06 PM 45.0473 -77.5699 235° Southwest 455 524 38,000  Level FlightAware ADS-B (CYYZ)
Tue 03:30:17 PM 45.0340 -77.5966 235° Southwest 456 525 38,000  Level FlightAware ADS-B
Tue 03:30:51 PM 44.9926 -77.6792 235° Southwest 454 522 38,000  Level FlightAware ADS-B (CYYZ)
Tue 03:31:05 PM 44.9775 -77.7095 235° Southwest 454 522 38,000  Level FlightAware ADS-B
Tue 03:31:37 PM 44.9376 -77.7888 235° Southwest 453 521 38,000  Level FlightAware ADS-B (CYYZ)
Tue 03:31:45 PM 44.9270 -77.8099 235° Southwest 451 519 38,000 -414 Level FlightAware ADS-B
Tue 03:32:06 PM 44.9025 -77.8585 235° Southwest 438 504 37,800 -1,347 Descending FlightAware ADS-B (CYYZ)
Tue 03:32:34 PM 44.8694 -77.9240 235° Southwest 429 494 36,900 -1,957 Descending FlightAware ADS-B
Tue 03:32:52 PM 44.8496 -77.9626 234° Southwest 427 491 36,300 -2,323 Descending FlightAware ADS-B (CYYZ)
Tue 03:33:05 PM 44.8337 -77.9918 233° Southwest 425 489 35,700 -2,133 Descending FlightAware ADS-B
Tue 03:33:37 PM 44.7958 -78.0610 233° Southwest 421 484 34,700 -2,043 Descending FlightAware ADS-B (CYYZ)
Tue 03:33:52 PM 44.7773 -78.0947 233° Southwest 419 482 34,100 -2,200 Descending FlightAware ADS-B
Tue 03:34:07 PM 44.7604 -78.1257 233° Southwest 418 481 33,600 -2,087 Descending FlightAware ADS-B (CYYZ)
Tue 03:34:38 PM 44.7249 -78.1914 233° Southwest 412 474 32,500 -2,167 Descending FlightAware ADS-B (CYYZ)
Tue 03:34:43 PM 44.7184 -78.2033 233° Southwest 412 474 32,300 -2,000 Descending FlightAware ADS-B
Tue 03:35:08 PM 44.6898 -78.2561 233° Southwest 409 471 31,500 -2,057 Descending FlightAware ADS-B (CYYZ)
Tue 03:35:18 PM 44.6795 -78.2750 233° Southwest 408 470 31,100 -2,200 Descending FlightAware ADS-B
Tue 03:35:38 PM 44.6559 -78.3185 233° Southwest 406 467 30,400 -2,031 Descending FlightAware ADS-B (CYYZ)
Tue 03:36:23 PM 44.6045 -78.4130 233° Southwest 399 459 28,900 -2,000 Descending FlightAware ADS-B (CYYZ)
Tue 03:36:53 PM 44.5706 -78.4746 233° Southwest 394 453 27,900 -1,895 Descending FlightAware ADS-B (CYYZ)
Tue 03:37:39 PM 44.5211 -78.5649 233° Southwest 386 444 26,500 -1,840 Descending FlightAware ADS-B (CYYZ)
Tue 03:38:08 PM 44.4887 -78.6236 233° Southwest 380 437 25,600 -1,760 Descending FlightAware ADS-B (CYYZ)
Tue 03:38:54 PM 44.4416 -78.7091 233° Southwest 372 428 24,300 -1,761 Descending FlightAware ADS-B (CYYZ)
Tue 03:39:40 PM 44.3949 -78.7936 233° Southwest 365 420 22,900 -1,737 Descending FlightAware ADS-B (CYYZ)
Tue 03:40:10 PM 44.3622 -78.8522 232° Southwest 361 415 22,100 -1,700 Descending FlightAware ADS-B (CYYZ)
Tue 03:40:40 PM 44.3311 -78.9082 233° Southwest 357 411 21,200 -1,760 Descending FlightAware ADS-B (CYYZ)
Tue 03:41:25 PM 44.2865 -78.9883 233° Southwest 351 404 19,900 -1,737 Descending FlightAware ADS-B (CYYZ)
Tue 03:41:56 PM 44.2549 -79.0427 227° Southwest 348 400 19,000 -1,800 Descending FlightAware ADS-B (CYYZ)
Tue 03:42:25 PM 44.2363 -79.0671 232° Southwest 349 402 18,100 -1,773 Descending FlightAware ADS-B (CYKF)
Tue 03:42:40 PM 44.1997 -79.1057 217° Southwest 345 397 17,700 -1,565 Descending FlightAware ADS-B (CYYZ)
Tue 03:43:11 PM 44.1609 -79.1454 217° Southwest 342 394 16,900 -1,574 Descending FlightAware ADS-B (CYYZ)
Tue 03:43:41 PM 44.1224 -79.1843 216° Southwest 337 388 16,100 -1,680 Descending FlightAware ADS-B (CYYZ)
Tue 03:44:26 PM 44.0657 -79.2419 217° Southwest 331 381 14,800 -1,658 Descending FlightAware ADS-B (CYYZ)
Tue 03:44:57 PM 44.0281 -79.2800 217° Southwest 328 377 14,000 -1,475 Descending FlightAware ADS-B (CYYZ)
Tue 03:45:27 PM 43.9923 -79.3165 217° Southwest 320 368 13,300 -1,355 Descending FlightAware ADS-B (CYYZ)
Tue 03:45:28 PM 44.0111 -79.2973 216° Southwest 321 369 13,300 -667 Level FlightAware ADS-B (CYKF)
Tue 03:46:12 PM 43.9399 -79.3693 217° Southwest 294 338 12,800 -762 Descending FlightAware ADS-B (CYYZ)
Tue 03:46:31 PM 43.9189 -79.3907 216° Southwest 290 334 12,500 -1,067 Descending FlightAware ADS-B (CYKF)
Tue 03:46:57 PM 43.8909 -79.4189 216° Southwest 277 319 12,000 -1,154 Descending FlightAware ADS-B (CYYZ)
Tue 03:47:23 PM 43.8665 -79.4448 224° Southwest 257 296 11,500 -968 Descending FlightAware ADS-B (KFYG)
Tue 03:47:28 PM 43.8619 -79.4513 228° Southwest 254 292 11,500 -1,364 Level FlightAware ADS-B (CYYZ)
Tue 03:47:45 PM 43.8507 -79.4734 240° Southwest 249 287 11,000 -1,655 Descending FlightAware ADS-B (KFYG)
Tue 03:48:26 PM 43.8305 -79.5228 241° Southwest 241 277 9,900 -1,700 Descending FlightAware ADS-B (KFYG)
Tue 03:48:45 PM 43.8183 -79.5533 241° Southwest 240 276 9,300 -1,500 Descending FlightAware ADS-B (KFYG)
Tue 03:48:58 PM 43.8106 -79.5725 241° Southwest 240 276 9,100 -900 Descending FlightAware ADS-B (CYYZ)
Tue 03:49:05 PM 43.8070 -79.5815 241° Southwest 241 277 9,000 -214 Descending FlightAware ADS-B (KFYG)
Tue 03:49:26 PM 43.7958 -79.6090 241° Southwest 240 276 9,000  Level FlightAware ADS-B (KFYG)
Tue 03:49:29 PM 43.7942 -79.6127 241° Southwest 239 275 9,000  Level FlightAware ADS-B (CYYZ)
Tue 03:49:45 PM 43.7855 -79.6341 241° Southwest 240 276 9,000  Level FlightAware ADS-B (KFYG)
Tue 03:50:05 PM 43.7741 -79.6615 240° Southwest 237 273 9,000 -207 Level FlightAware ADS-B (KFYG)
Tue 03:50:14 PM 43.7692 -79.6736 241° Southwest 236 272 8,900 -1,143 Descending FlightAware ADS-B (CYYZ)
Tue 03:50:26 PM 43.7628 -79.6891 240° Southwest 237 273 8,600 -1,400 Descending FlightAware ADS-B (KFYG)
Tue 03:50:44 PM 43.7529 -79.7127 239° Southwest 238 274 8,200 -1,429 Descending FlightAware ADS-B (CYYZ)
Tue 03:50:47 PM 43.7517 -79.7154 236° Southwest 239 275 8,100 -1,429 Descending FlightAware ADS-B (KFYG)
Tue 03:51:05 PM 43.7388 -79.7374 227° Southwest 240 276 7,700 -1,200 Descending FlightAware ADS-B (KFYG)
Tue 03:51:27 PM 43.7246 -79.7583 227° Southwest 239 275 7,300 -960 Descending FlightAware ADS-B (KFYG)
Tue 03:51:30 PM 43.7198 -79.7653 227° Southwest 239 275 7,300 -1,263 Level FlightAware ADS-B (CYYZ)
Tue 03:51:46 PM 43.7075 -79.7830 227° Southwest 241 277 6,900 -1,400 Descending FlightAware ADS-B (KFYG)
Tue 03:52:00 PM 43.6967 -79.7988 227° Southwest 241 277 6,600 -1,200 Descending FlightAware ADS-B (CYYZ)
Tue 03:52:06 PM 43.6933 -79.8036 226° Southwest 242 278 6,500 -1,200 Descending FlightAware ADS-B (KFYG)
Tue 03:52:15 PM 43.6853 -79.8151 227° Southwest 241 277 6,300 -1,143 Descending FlightAware ADS-B (CYYZ)
Tue 03:52:27 PM 43.6761 -79.8283 226° Southwest 240 276 6,100 -1,000 Descending FlightAware ADS-B (KFYG)
Tue 03:52:45 PM 43.6616 -79.8490 226° Southwest 235 270 5,800 -947 Descending FlightAware ADS-B (CYYZ)
Tue 03:52:46 PM 43.6649 -79.8442 226° Southwest 236 272 5,800 -1,143 Level FlightAware ADS-B (KFYG)
Tue 03:53:06 PM 43.6467 -79.8704 226° Southwest 234 269 5,400 -1,034 Descending FlightAware ADS-B (KFYG)
Tue 03:53:15 PM 43.6391 -79.8813 227° Southwest 232 267 5,300 -1,250 Descending FlightAware ADS-B (CYYZ)
Tue 03:53:30 PM 43.6283 -79.8969 227° Southwest 234 269 4,900 -1,500 Descending FlightAware ADS-B (CYYZ)
Tue 03:53:47 PM 43.6150 -79.9147 220° Southwest 239 275 4,500 -1,161 Descending FlightAware ADS-B (KFYG)
Tue 03:54:01 PM 43.6010 -79.9231 191° South 236 272 4,300 -947 Descending FlightAware ADS-B (CYYZ)
Tue 03:54:06 PM 43.5955 -79.9236 182° South 237 273 4,200 -2,000 Descending FlightAware ADS-B (CYYZ)
Tue 03:54:07 PM 43.5985 -79.9236 180° South 238 274 4,100 -1,200 Descending FlightAware ADS-B (KFYG)
Tue 03:54:11 PM 43.5900 -79.9229 169° South 238 274 4,100 -1,333 Level FlightAware ADS-B (CYYZ)
Tue 03:54:16 PM 43.5848 -79.9208 159° South 241 277 3,900 -2,250 Descending FlightAware ADS-B (CYYZ)
Tue 03:54:27 PM 43.6150 -79.9147 136° Southeast 238 274 3,500 -1,000 Descending FlightAware ADS-B (CYHM)
Tue 03:54:46 PM 43.5585 -79.8913 126° Southeast 237 273 3,400 -500 Descending FlightAware ADS-B (CYYZ)
Tue 03:54:51 PM 43.5563 -79.8858 115° Southeast 238 274 3,300 -1,200 Descending FlightAware ADS-B (CYYZ)
Tue 03:54:56 PM 43.5545 -79.8786 103° East 240 276 3,200 -720 Descending FlightAware ADS-B (CYYZ)
Tue 03:55:16 PM 43.5573 -79.8483 69° East 227 261 3,000 -200 Descending FlightAware ADS-B (CYYZ)
Tue 03:55:26 PM 43.5607 -79.8357 69° East 216 249 3,100  Climbing FlightAware ADS-B (KFYG)
Tue 03:55:45 PM 43.5680 -79.8177 54° Northeast 196 226 3,000 -250 Descending FlightAware ADS-B (KFYG)
Tue 03:55:50 PM 43.5723 -79.8103 68° East 213 245 3,000 353 Level FlightAware ADS-B
Tue 03:56:02 PM 43.5799 -79.7995 44° Northeast 193 222 3,100 333 Climbing FlightAware ADS-B (CYYZ)
Tue 03:56:08 PM 43.5834 -79.7949 44° Northeast 195 224 3,100 -462 Level FlightAware ADS-B (KFYG)
Tue 03:56:28 PM 43.5937 -79.7811 44° Northeast 194 223 2,900 -500 Descending FlightAware ADS-B (KFYG)
Tue 03:56:32 PM 43.5990 -79.7739 45° Northeast 191 220 2,900 -1,333 Level FlightAware ADS-B (CYYZ)
Tue 03:56:46 PM 43.6081 -79.7605 47° Northeast 186 214 2,500 -1,500 Descending FlightAware ADS-B (CYYZ)
Tue 03:56:48 PM 43.6059 -79.7638 48° Northeast 190 219 2,500 -968 Level FlightAware ADS-B (KFYG)
Tue 03:57:17 PM 43.6251 -79.7357 46° Northeast 171 197 2,000 -900 Descending FlightAware ADS-B (CYYZ)
Tue 03:57:48 PM 43.6418 -79.7112 46° Northeast 166 191 1,600 -787 Descending FlightAware ADS-B (CYYZ)
Tue 03:58:18 PM 43.6569 -79.6894 45° Northeast 145 167 1,200 -800 Descending FlightAware ADS-B (CYYZ)
Tue 03:58:33 PM 43.6637 -79.6795 47° Northeast 144 166 1,000 -800 Descending FlightAware ADS-B (CYYZ)
Tue 03:59:03 PM 43.6761 -79.6613 46° Northeast 142 163 600 -800 Descending FlightAware ADS-B (CYYZ)

Login

Don't have an account? Register now (free) for customized features, flight alerts, and more!